Charlotte, Iowa
Current Conditions -  °F | °C
As of 11:15 AM on Thursday 30 Oct 2014 (Local Time) from KCWI Reporting Station
Broken Clouds Broken Clouds  
Wind Chill: 40°   Ceiling: 8500
Heat Index: 45°   Visibility: 10mi
Dew Point: 37°   Wind: 8mph
Humidity: 76%   Direction: 200°SSW
Pressure: 30.13"   Gusts: NA
Location:  41.96°N, 90.47°W
Report Text: KCWI 301615Z 20007KT 10SM SCT075 BKN085 07/03 A3013 RMK AO1
Loading
Personal Weather Stations






























Interactive Weather Map
Tropical Storm Tracking
New forecast layout! Learn more

10-Day Weather Forecast

Advertisements
Track Severe Weather on mobile